Archival Weather

Biggin Hill

Biggin Hill, United Kingdom (EGKB)

Report from: Sunday, September 25, 2022 8:20 AM BST
Current time: Saturday, March 2, 2024 8:58 AM GMT

Current weather – Weather history – Daily summaries
Weather forecast

Temperature8.0°C (46.4°F)
Wind chill6.8°C (44.3°F)
Dew point7.0°C (44.6°F)
Winds 4 kts (2.1 m/s, 4.6 mph) Vrb
Winds variableWinds variable from West (280°) to North-Northwest (340°)
Visibility6.2 mi. (10 km)
Clouds Few clouds 700 ft. (213 m)
Altimeter30.12 in.Hg (1020 mB)
Relative humidity93 %
Density altitude-926 ft. (-282 m)
Flight conditions Visual Meteorological Conditions
Raw dataEGKB 250720Z 31004KT 280V340 9999 FEW007 08/07 Q1020
An error has occurred. This application may no longer respond until reloaded. Reload 🗙